Goodville, Texas
Current Conditions -  °F | °C
As of 5:55 PM on Monday 20 Oct 2014 (Local Time) from KTPL Reporting Station
Clear Clear  
Wind Chill: 77°   Ceiling: Unl
Heat Index: 79°   Visibility: 10mi
Dew Point: 55°   Wind: 8mph
Humidity: 47%   Direction: 70°ENE
Pressure: 30"   Gusts: NA
Location:  31.1912°N, 97.0719°W
Report Text: KTPL 202255Z AUTO 07007KT 10SM CLR 25/13 A3000 RMK AO1
Loading
Personal Weather Stations






























Interactive Weather Map
Tropical Storm Tracking
New forecast layout! Learn more

10-Day Weather Forecast

Advertisements
Track Severe Weather on mobile